Portada
METAR-TAF:

METAR-TAF

Aeroports :

Aurenja, França

latitud: 44-08N, longitud: 004-50E, altitud: 60 m

Observació

L'informe es va fer fa 18 minuts, a les 17:00 UTC
Vent 19 kt del Nord amb ràfegues de 30 kt
Temperatura 26°C
Humitat 45%
Pressió 1018 hPa
Visibilitat 10 km o més
sense núvols per sota de 1500 mi sense presència de cumulonimbus.

METAR: LFMO 181700Z AUTO 35019G30KT CAVOK 26/13 Q1018 NOSIG

Hora: 19:18 (17:18 UTC)

Pronòstic

L'informe es va fer fa 3 hores i 18 minuts, a les 14:00 UTC
Pronòstic vàlid del 18 a les 15 UTC al 19 a les 15 UTC
Vent 25 kt del Nord amb ràfegues de 35 kt
Visibilitat 10 km o més
sense núvols per sota de 1500 mi sense presència de cumulonimbus.
Evolucionant progressivament
l' 19 a les 11 UTC al 19 a les 13 UTC
Vent 15 kt del Nord

TAF: LFMO 181400Z 1815/1915 35025G35KT CAVOK BECMG 1911/1913 36015KT

Observacions i pronòstics meteorològics de més de 4000 aeroports (METAR i TAF).

Les estacions disponibles són els punts grocs i vermells al mapa.

Posi el ratolí al punt desitjat per veure el nom de l'estació.

Feu clic per veure les observacions i els pronòstics meteorològics.

Per canviar el mapa: feu clic els botons verds amb una creu de color negre per apropar; al botó verd amb un guió per allunyar la imatge; o en les fletxes verdes per a mapes adjacents.


METAR-TAF: